Time;durP1;ratioP1;P1;durP2;ratioP2;P2;SDS_P1;SDS_P2;PMS_P1;PMS_P2;Temp;Humidity;BMP_temperature;BMP_pressure;BME280_temperature;BME280_humidity;BME280_pressure;Samples;Min_cycle;Max_cycle;Signal;HPM_P1;HPM_P2
2021/03/18 00:00:23;;;;;;;16.33;3.20;;;5.20;99.90;;;;;;5009221;28;20198;-69
2021/03/18 00:02:50;;;;;;;7.93;2.80;;;5.10;99.90;;;;;;5005361;28;20228;-70
2021/03/18 00:05:19;;;;;;;20.87;3.13;;;5.10;99.90;;;;;;5009239;28;20293;-69
2021/03/18 00:07:47;;;;;;;14.87;3.10;;;5.10;99.90;;;;;;5002176;28;20226;-69
2021/03/18 00:10:17;;;;;;;17.47;3.63;;;5.00;99.90;;;;;;5009259;28;20218;-70
2021/03/18 00:12:45;;;;;;;14.20;2.93;;;4.90;99.90;;;;;;5008698;28;20906;-70
2021/03/18 00:15:14;;;;;;;14.03;3.30;;;4.80;99.90;;;;;;5007806;28;20197;-70
2021/03/18 00:17:42;;;;;;;16.27;3.20;;;4.70;99.90;;;;;;5009822;28;20248;-70
2021/03/18 00:20:12;;;;;;;13.17;3.00;;;4.60;99.90;;;;;;5008580;28;20190;-70
2021/03/18 00:22:42;;;;;;;18.10;3.60;;;4.60;99.90;;;;;;5005488;28;20264;-69
2021/03/18 00:25:12;;;;;;;14.20;3.17;;;4.60;99.90;;;;;;5004953;28;20202;-70
2021/03/18 00:27:41;;;;;;;15.53;3.47;;;4.60;99.90;;;;;;5008253;28;20206;-70
2021/03/18 00:30:10;;;;;;;10.23;3.43;;;4.70;99.90;;;;;;5008723;28;20433;-70
2021/03/18 00:32:38;;;;;;;16.73;2.90;;;4.80;99.90;;;;;;5009107;28;20587;-69
2021/03/18 00:35:09;;;;;;;14.20;3.43;;;4.80;99.90;;;;;;5009029;28;20300;-70
2021/03/18 00:37:37;;;;;;;16.47;3.40;;;4.90;99.90;;;;;;5006008;28;20609;-70
2021/03/18 00:40:09;;;;;;;16.97;3.93;;;5.00;99.90;;;;;;5009811;28;20222;-69
2021/03/18 00:42:50;;;;;;;10.50;3.03;;;5.00;99.90;;;;;;5006939;28;20220;-70
2021/03/18 00:45:19;;;;;;;23.87;3.83;;;5.00;99.90;;;;;;5010093;28;20194;-70
2021/03/18 00:47:47;;;;;;;21.67;3.50;;;5.10;99.90;;;;;;5006158;28;20221;-69
2021/03/18 00:50:19;;;;;;;13.77;3.17;;;5.10;99.90;;;;;;5008953;28;20190;-70
2021/03/18 00:52:47;;;;;;;11.80;3.17;;;5.10;99.90;;;;;;5005943;28;20310;-70
2021/03/18 00:55:15;;;;;;;16.63;3.43;;;5.20;99.90;;;;;;5008906;28;20304;-70
2021/03/18 00:57:43;;;;;;;17.50;3.83;;;5.20;99.90;;;;;;5006536;28;20277;-70
2021/03/18 01:00:16;;;;;;;15.70;3.17;;;5.20;99.90;;;;;;5009754;28;20669;-70
2021/03/18 01:02:43;;;;;;;18.23;4.10;;;5.20;99.90;;;;;;5009212;28;20220;-70
2021/03/18 01:05:14;;;;;;;10.53;3.20;;;5.20;99.90;;;;;;5008464;28;20193;-70
2021/03/18 01:07:42;;;;;;;14.60;3.13;;;5.20;99.90;;;;;;5005707;28;20206;-70
2021/03/18 01:10:11;;;;;;;13.73;3.50;;;5.20;99.90;;;;;;5006447;28;20186;-70
2021/03/18 01:12:39;;;;;;;15.70;3.30;;;5.20;99.90;;;;;;5008354;28;20194;-70
2021/03/18 01:15:08;;;;;;;20.53;3.90;;;5.20;99.90;;;;;;5009611;28;20685;-70
2021/03/18 01:17:36;;;;;;;19.57;4.10;;;5.20;99.90;;;;;;5008468;28;20198;-70
2021/03/18 01:20:06;;;;;;;18.93;3.70;;;5.20;99.90;;;;;;5006884;28;20194;-70
2021/03/18 01:22:33;;;;;;;13.73;2.90;;;5.20;99.90;;;;;;5007303;28;20775;-68
2021/03/18 01:25:00;;;;;;;12.53;3.63;;;5.20;99.90;;;;;;5007170;28;20293;-70
2021/03/18 01:27:28;;;;;;;17.83;3.57;;;5.20;99.90;;;;;;5008263;28;20193;-69
2021/03/18 01:29:59;;;;;;;8.83;3.23;;;5.20;99.90;;;;;;5009131;28;20268;-70
2021/03/18 01:32:36;;;;;;;14.17;3.43;;;5.20;99.90;;;;;;5005112;28;20204;-69
2021/03/18 01:35:07;;;;;;;12.27;3.43;;;5.20;99.90;;;;;;5008579;28;20206;-70
2021/03/18 01:37:36;;;;;;;17.47;3.30;;;5.20;99.90;;;;;;5007465;28;20198;-70
2021/03/18 01:40:07;;;;;;;14.23;3.20;;;5.20;99.90;;;;;;5009356;28;20202;-70
2021/03/18 01:42:34;;;;;;;13.23;3.23;;;5.20;99.90;;;;;;5010345;28;20693;-68
2021/03/18 01:45:05;;;;;;;14.07;2.50;;;5.10;99.90;;;;;;5011984;28;20198;-68
2021/03/18 01:47:32;;;;;;;13.47;2.80;;;5.10;99.90;;;;;;5012269;28;20248;-70
2021/03/18 01:50:00;;;;;;;9.37;3.13;;;5.10;99.90;;;;;;5011193;28;20190;-69
2021/03/18 01:52:28;;;;;;;9.07;2.53;;;5.10;99.90;;;;;;5010819;28;20225;-69
2021/03/18 01:54:56;;;;;;;10.77;2.90;;;5.10;99.90;;;;;;5009064;28;21461;-70
2021/03/18 01:57:23;;;;;;;9.10;2.60;;;5.10;99.90;;;;;;5006805;28;20202;-70
2021/03/18 01:59:53;;;;;;;6.87;2.17;;;5.00;99.90;;;;;;5013011;28;20194;-69
2021/03/18 02:02:21;;;;;;;7.23;2.33;;;5.00;99.90;;;;;;5009561;28;20752;-70
2021/03/18 02:04:50;;;;;;;11.23;2.20;;;5.00;99.90;;;;;;5011683;28;20281;-69
2021/03/18 02:07:17;;;;;;;4.90;2.03;;;5.00;99.90;;;;;;5011530;28;20288;-70
2021/03/18 02:09:44;;;;;;;3.90;1.87;;;5.00;99.90;;;;;;4994099;28;20196;-70
2021/03/18 02:12:11;;;;;;;5.93;2.30;;;5.00;99.90;;;;;;5011719;28;20178;-70
2021/03/18 02:14:39;;;;;;;5.23;2.20;;;5.00;99.90;;;;;;5012349;28;20248;-70
2021/03/18 02:17:10;;;;;;;2.77;2.00;;;4.90;99.90;;;;;;4994005;28;20237;-70
2021/03/18 02:20:00;;;;;;;4.43;1.90;;;5.00;99.90;;;;;;5010519;28;20226;-70
2021/03/18 02:23:26;;;;;;;7.13;2.27;;;4.90;99.90;;;;;;5009073;28;20240;-70
2021/03/18 02:26:09;;;;;;;8.43;2.23;;;4.90;99.90;;;;;;5005043;28;20238;-69
2021/03/18 02:28:53;;;;;;;5.20;2.00;;;4.90;99.90;;;;;;5010247;28;20294;-64
2021/03/18 02:31:34;;;;;;;6.00;2.03;;;4.90;99.90;;;;;;5011103;28;20178;-70
2021/03/18 02:34:14;;;;;;;6.10;2.20;;;4.90;99.90;;;;;;5012777;28;20202;-70
2021/03/18 02:36:46;;;;;;;5.27;1.80;;;4.80;99.90;;;;;;5008111;28;20662;-70
2021/03/18 02:39:18;;;;;;;4.83;2.00;;;4.80;99.90;;;;;;5010850;28;20603;-70
2021/03/18 02:41:50;;;;;;;8.20;2.30;;;4.80;99.90;;;;;;5010163;28;20587;-70
2021/03/18 02:44:20;;;;;;;7.50;2.10;;;4.80;99.90;;;;;;5010775;28;20193;-70
2021/03/18 02:46:57;;;;;;;5.93;1.97;;;4.70;99.90;;;;;;5011020;28;20637;-70
2021/03/18 02:49:26;;;;;;;4.63;1.80;;;4.70;99.90;;;;;;5009504;28;20198;-70
2021/03/18 02:51:57;;;;;;;6.07;1.97;;;4.70;99.90;;;;;;5010032;28;20198;-70
2021/03/18 02:54:25;;;;;;;6.00;2.37;;;4.70;99.90;;;;;;5006727;28;20198;-70
2021/03/18 02:56:58;;;;;;;7.17;2.43;;;4.70;99.90;;;;;;5007624;28;20270;-71
2021/03/18 02:59:31;;;;;;;6.87;3.23;;;4.60;99.90;;;;;;5009207;28;20293;-70
2021/03/18 03:02:02;;;;;;;7.40;2.47;;;4.50;99.90;;;;;;5008307;28;20429;-71
2021/03/18 03:04:31;;;;;;;8.50;2.30;;;4.40;99.90;;;;;;5012590;28;20244;-70
2021/03/18 03:07:00;;;;;;;7.50;2.40;;;4.40;99.90;;;;;;5010030;28;20612;-70
2021/03/18 03:09:28;;;;;;;8.00;2.63;;;4.30;99.90;;;;;;5004269;28;20194;-70
2021/03/18 03:11:58;;;;;;;7.20;2.40;;;4.30;99.90;;;;;;5010861;28;20210;-70
2021/03/18 03:14:26;;;;;;;5.37;2.33;;;4.20;99.90;;;;;;5009719;28;20222;-70
2021/03/18 03:16:53;;;;;;;5.60;2.50;;;4.20;99.90;;;;;;5011054;28;20787;-71
2021/03/18 03:19:22;;;;;;;7.00;2.57;;;4.10;99.90;;;;;;5010429;28;20679;-69
2021/03/18 03:21:50;;;;;;;2.93;2.60;;;4.00;99.90;;;;;;5010972;28;20551;-69
2021/03/18 03:24:19;;;;;;;5.63;2.60;;;4.00;99.90;;;;;;5008808;28;20257;-70
2021/03/18 03:26:47;;;;;;;7.97;2.80;;;3.90;99.90;;;;;;5009387;28;20194;-70
2021/03/18 03:29:15;;;;;;;4.20;2.80;;;3.90;99.90;;;;;;5008491;28;20260;-71
2021/03/18 03:31:43;;;;;;;8.40;2.70;;;3.80;99.90;;;;;;5011572;28;20289;-70
2021/03/18 03:34:11;;;;;;;6.00;2.77;;;3.80;99.90;;;;;;5009056;28;20317;-71
2021/03/18 03:36:38;;;;;;;5.83;2.90;;;3.80;99.90;;;;;;5010572;28;20230;-65
2021/03/18 03:39:07;;;;;;;6.03;2.80;;;3.80;99.90;;;;;;5009908;28;20194;-71
2021/03/18 03:41:35;;;;;;;8.77;2.83;;;3.80;99.90;;;;;;5005631;28;20297;-67
2021/03/18 03:44:04;;;;;;;11.00;2.87;;;3.90;99.90;;;;;;5008796;28;20279;-70
2021/03/18 03:46:31;;;;;;;5.70;2.97;;;3.90;99.90;;;;;;5010371;28;20289;-70
2021/03/18 03:48:59;;;;;;;6.93;3.27;;;3.90;99.90;;;;;;5009084;28;20656;-70
2021/03/18 03:51:33;;;;;;;3.00;2.70;;;3.90;99.90;;;;;;5009449;28;20857;-70
2021/03/18 03:54:03;;;;;;;9.47;2.90;;;3.90;99.90;;;;;;5004088;28;20202;-70
2021/03/18 03:56:40;;;;;;;3.87;2.87;;;3.90;99.90;;;;;;5009225;28;20293;-70
2021/03/18 03:59:14;;;;;;;6.67;3.20;;;4.00;99.90;;;;;;5007493;28;20252;-71
2021/03/18 04:01:45;;;;;;;5.03;3.00;;;4.00;99.90;;;;;;5007395;28;20221;-70
2021/03/18 04:04:29;;;;;;;3.90;3.20;;;4.00;99.90;;;;;;5008553;28;20246;-70
2021/03/18 04:07:01;;;;;;;11.33;3.20;;;3.90;99.90;;;;;;5021827;28;20190;-70
2021/03/18 04:09:29;;;;;;;7.33;3.40;;;3.90;99.90;;;;;;5009853;28;20194;-70
2021/03/18 04:12:02;;;;;;;8.70;3.20;;;3.80;99.90;;;;;;5009625;28;20289;-70
2021/03/18 04:14:32;;;;;;;15.60;4.70;;;3.80;99.90;;;;;;5009373;28;20198;-70
2021/03/18 04:17:06;;;;;;;7.23;3.60;;;3.80;99.90;;;;;;5008938;28;20288;-70
2021/03/18 04:19:34;;;;;;;9.07;3.70;;;3.80;99.90;;;;;;5008501;28;20685;-69
2021/03/18 04:22:02;;;;;;;4.10;3.57;;;3.80;99.90;;;;;;5007135;28;21090;-70
2021/03/18 04:24:34;;;;;;;8.60;3.73;;;3.80;99.90;;;;;;5006688;28;20224;-70
2021/03/18 04:27:03;;;;;;;5.97;3.40;;;3.80;99.90;;;;;;5008663;28;20238;-70
2021/03/18 04:29:33;;;;;;;16.43;4.73;;;3.80;99.90;;;;;;5008887;28;20256;-71
2021/03/18 04:32:01;;;;;;;11.13;4.10;;;3.80;99.90;;;;;;5008706;28;20194;-70
2021/03/18 04:34:49;;;;;;;9.97;3.77;;;3.80;99.90;;;;;;5007328;28;20193;-70
2021/03/18 04:37:17;;;;;;;17.33;3.90;;;3.80;99.90;;;;;;5007680;28;20224;-70
2021/03/18 04:39:47;;;;;;;14.17;3.67;;;3.80;99.90;;;;;;5005817;28;20190;-69
2021/03/18 04:42:16;;;;;;;8.40;3.57;;;3.80;99.90;;;;;;5009220;28;20209;-70
2021/03/18 04:44:45;;;;;;;11.80;4.00;;;3.70;99.90;;;;;;5008624;28;20202;-69
2021/03/18 04:47:16;;;;;;;9.80;3.90;;;3.60;99.90;;;;;;5007832;28;20206;-70
2021/03/18 04:49:45;;;;;;;12.00;4.20;;;3.50;99.90;;;;;;5008961;28;20501;-70
2021/03/18 04:52:14;;;;;;;8.70;3.83;;;3.40;99.90;;;;;;5008773;28;20222;-70
2021/03/18 04:54:42;;;;;;;12.33;4.20;;;3.20;99.90;;;;;;5008883;28;20296;-69
2021/03/18 04:57:11;;;;;;;5.00;3.63;;;3.10;99.90;;;;;;5005778;28;20677;-70
2021/03/18 04:59:41;;;;;;;6.93;4.07;;;3.00;99.90;;;;;;5007914;28;20233;-70
2021/03/18 05:02:09;;;;;;;10.50;4.37;;;2.90;99.90;;;;;;5008553;28;20313;-70
2021/03/18 05:04:37;;;;;;;9.87;5.40;;;2.90;99.90;;;;;;5002877;28;20201;-70
2021/03/18 05:07:05;;;;;;;11.73;5.23;;;2.90;99.90;;;;;;5007870;28;20230;-70
2021/03/18 05:09:34;;;;;;;10.50;5.40;;;2.90;99.90;;;;;;5003934;28;20249;-69
2021/03/18 05:12:04;;;;;;;10.23;5.47;;;2.90;99.90;;;;;;5008399;28;20214;-70
2021/03/18 05:14:31;;;;;;;9.93;5.47;;;2.90;99.90;;;;;;5008368;28;20260;-70
2021/03/18 05:17:01;;;;;;;11.00;5.50;;;2.90;99.90;;;;;;5008285;28;20252;-70
2021/03/18 05:19:29;;;;;;;10.30;5.50;;;2.90;99.90;;;;;;5009538;28;20625;-71
2021/03/18 05:21:56;;;;;;;9.90;4.93;;;2.90;99.90;;;;;;5008146;28;20214;-70
2021/03/18 05:24:24;;;;;;;12.40;5.43;;;2.90;99.90;;;;;;5008468;28;20732;-70
2021/03/18 05:26:51;;;;;;;11.77;5.40;;;3.00;99.90;;;;;;5021797;28;20209;-70
2021/03/18 05:29:19;;;;;;;14.57;5.77;;;3.00;99.90;;;;;;5006305;28;20585;-70
2021/03/18 05:31:47;;;;;;;10.13;5.63;;;3.00;99.90;;;;;;5006766;28;20698;-70
2021/03/18 05:34:15;;;;;;;9.03;5.53;;;3.00;99.90;;;;;;5006809;28;20202;-70
2021/03/18 05:36:43;;;;;;;12.40;6.40;;;3.00;99.90;;;;;;5009214;28;20209;-70
2021/03/18 05:39:10;;;;;;;10.30;5.83;;;3.10;99.90;;;;;;5006968;28;20727;-70
2021/03/18 05:41:38;;;;;;;12.80;5.90;;;3.10;99.90;;;;;;5003318;28;20201;-70
2021/03/18 05:44:07;;;;;;;15.30;6.07;;;3.10;99.90;;;;;;5005281;28;20683;-69
2021/03/18 05:46:36;;;;;;;11.97;6.37;;;3.10;99.90;;;;;;5004085;28;20783;-70
2021/03/18 05:49:04;;;;;;;16.60;6.70;;;3.10;99.90;;;;;;5008052;28;20190;-70
2021/03/18 05:51:37;;;;;;;12.47;5.67;;;3.20;99.90;;;;;;5008905;28;20249;-70
2021/03/18 05:54:08;;;;;;;17.73;5.70;;;3.20;99.90;;;;;;5009235;28;20206;-70
2021/03/18 05:56:38;;;;;;;17.10;6.50;;;3.20;99.90;;;;;;5000003;28;20229;-70
2021/03/18 05:59:06;;;;;;;11.17;6.53;;;3.20;99.90;;;;;;5003477;28;20197;-70
2021/03/18 06:01:34;;;;;;;13.70;6.60;;;3.30;99.90;;;;;;5008262;28;20200;-71
2021/03/18 06:04:02;;;;;;;16.00;6.63;;;3.30;99.90;;;;;;5008865;28;20213;-70
2021/03/18 06:06:30;;;;;;;9.77;6.23;;;3.30;99.90;;;;;;5006369;28;20657;-70
2021/03/18 06:08:58;;;;;;;16.87;6.00;;;3.40;99.90;;;;;;5007488;28;20206;-69
2021/03/18 06:11:28;;;;;;;17.00;6.97;;;3.40;99.90;;;;;;5003633;28;20225;-70
2021/03/18 06:13:56;;;;;;;15.23;6.70;;;3.40;99.90;;;;;;5008647;28;20221;-70
2021/03/18 06:16:24;;;;;;;17.40;6.90;;;3.50;99.90;;;;;;5007014;28;20793;-69
2021/03/18 06:18:59;;;;;;;21.43;7.77;;;3.50;99.90;;;;;;5008551;28;20217;-70
2021/03/18 06:21:47;;;;;;;17.97;6.97;;;3.60;99.90;;;;;;5004068;28;20739;-69
2021/03/18 06:24:15;;;;;;;13.07;6.87;;;3.60;99.90;;;;;;5009843;28;20226;-70
2021/03/18 06:26:43;;;;;;;15.03;7.20;;;3.70;99.90;;;;;;5011005;28;20226;-69
2021/03/18 06:29:34;;;;;;;14.63;6.97;;;3.70;99.90;;;;;;5009893;28;20245;-70
2021/03/18 06:32:16;;;;;;;13.63;6.27;;;3.70;99.90;;;;;;5008165;28;20226;-70
2021/03/18 06:34:46;;;;;;;16.10;6.57;;;3.70;99.90;;;;;;5008219;28;20202;-70
2021/03/18 06:37:46;;;;;;;14.37;6.87;;;3.80;99.90;;;;;;5025191;28;20258;-68
2021/03/18 06:40:18;;;;;;;23.73;6.70;;;3.80;99.90;;;;;;4966289;28;20706;-69
2021/03/18 06:42:57;;;;;;;21.80;6.90;;;3.80;99.90;;;;;;5002854;28;20688;-70
2021/03/18 06:45:30;;;;;;;17.47;6.70;;;3.80;99.90;;;;;;5012695;28;20256;-70
2021/03/18 06:48:01;;;;;;;16.30;6.60;;;3.90;99.90;;;;;;5010582;28;20194;-70
2021/03/18 06:50:34;;;;;;;16.43;6.70;;;3.90;99.90;;;;;;5005308;28;20194;-70
2021/03/18 06:53:02;;;;;;;11.67;6.83;;;3.90;99.90;;;;;;5022401;28;20280;-70
2021/03/18 06:55:31;;;;;;;16.43;6.73;;;4.00;99.90;;;;;;5009343;28;20210;-70
2021/03/18 06:58:21;;;;;;;13.07;7.10;;;4.00;99.90;;;;;;5004687;28;20573;-70
2021/03/18 07:00:51;;;;;;;14.67;6.40;;;4.00;99.90;;;;;;5006968;28;20202;-70
2021/03/18 07:03:29;;;;;;;15.90;7.87;;;4.00;99.90;;;;;;5008729;28;20256;-70
2021/03/18 07:05:58;;;;;;;18.63;7.10;;;4.00;99.90;;;;;;5009844;28;20217;-69
2021/03/18 07:08:28;;;;;;;15.67;6.60;;;4.10;99.90;;;;;;5008122;28;20214;-70
2021/03/18 07:10:58;;;;;;;16.80;6.80;;;4.10;99.90;;;;;;4986688;28;20265;-70
2021/03/18 07:13:28;;;;;;;15.63;7.37;;;4.10;99.90;;;;;;4989067;28;20302;-71
2021/03/18 07:15:57;;;;;;;10.20;7.03;;;4.20;99.90;;;;;;4989015;28;20273;-70
2021/03/18 07:18:26;;;;;;;18.80;8.17;;;4.20;99.90;;;;;;4989858;28;20674;-70
2021/03/18 07:21:01;;;;;;;22.97;8.03;;;4.20;99.90;;;;;;4989988;28;20653;-70
2021/03/18 07:23:38;;;;;;;26.40;8.73;;;4.20;99.90;;;;;;4973430;28;20246;-70
2021/03/18 07:26:24;;;;;;;16.33;6.97;;;4.20;99.90;;;;;;4990117;28;20209;-71
2021/03/18 07:28:54;;;;;;;18.07;7.90;;;4.30;99.90;;;;;;4988136;28;20652;-70
2021/03/18 07:31:22;;;;;;;17.43;7.03;;;4.30;99.90;;;;;;4985880;28;20230;-70
2021/03/18 07:33:49;;;;;;;22.90;7.40;;;4.20;99.90;;;;;;4987591;28;20290;-69
2021/03/18 07:36:17;;;;;;;17.43;7.87;;;4.20;99.90;;;;;;5006923;28;20213;-71
2021/03/18 07:38:45;;;;;;;21.40;7.80;;;4.30;99.90;;;;;;5004881;28;20201;-69
2021/03/18 07:41:15;;;;;;;19.53;7.93;;;4.30;99.90;;;;;;5009900;28;20289;-70
2021/03/18 07:43:44;;;;;;;20.13;8.23;;;4.30;99.90;;;;;;5008866;28;20670;-70
2021/03/18 07:46:14;;;;;;;21.50;8.87;;;4.30;99.90;;;;;;5011345;28;20584;-70
2021/03/18 07:48:43;;;;;;;24.97;8.93;;;4.30;99.90;;;;;;5011348;28;20186;-69
2021/03/18 07:51:11;;;;;;;25.30;8.50;;;4.30;99.90;;;;;;5010996;28;20233;-70
2021/03/18 07:53:40;;;;;;;24.13;9.07;;;4.40;99.90;;;;;;5010585;28;20305;-70
2021/03/18 07:56:14;;;;;;;21.57;9.00;;;4.40;99.90;;;;;;5022863;28;20636;-67
2021/03/18 07:58:44;;;;;;;20.97;8.80;;;4.40;99.90;;;;;;5009304;28;20201;-70
2021/03/18 08:01:36;;;;;;;22.37;9.57;;;4.30;99.90;;;;;;5009120;28;20206;-70
2021/03/18 08:04:06;;;;;;;22.00;10.83;;;4.30;99.90;;;;;;4990797;28;20231;-70
2021/03/18 08:06:50;;;;;;;23.33;10.53;;;4.40;99.90;;;;;;5007073;28;20293;-66
2021/03/18 08:09:43;;;;;;;21.23;11.00;;;4.50;99.90;;;;;;5008553;28;20553;-70
2021/03/18 08:12:12;;;;;;;14.87;8.70;;;4.50;99.90;;;;;;4993259;28;20599;-70
2021/03/18 08:14:41;;;;;;;22.73;9.83;;;4.50;99.90;;;;;;5006246;28;20187;-68
2021/03/18 08:17:28;;;;;;;19.37;9.50;;;4.50;99.90;;;;;;5006578;28;20712;-70
2021/03/18 08:19:56;;;;;;;20.80;9.87;;;4.50;99.90;;;;;;5008269;28;20619;-70
2021/03/18 08:22:30;;;;;;;24.80;10.03;;;4.50;99.90;;;;;;5008968;28;20214;-71
2021/03/18 08:25:22;;;;;;;22.67;9.67;;;4.60;99.90;;;;;;5008933;28;20194;-66
2021/03/18 08:27:50;;;;;;;18.90;9.67;;;4.70;99.90;;;;;;5003027;28;20229;-70
2021/03/18 08:30:26;;;;;;;17.27;8.97;;;4.80;99.90;;;;;;5008504;28;20236;-70
2021/03/18 08:32:56;;;;;;;21.43;9.00;;;4.90;99.90;;;;;;5010044;28;20830;-70
2021/03/18 08:35:28;;;;;;;22.50;8.83;;;4.90;99.90;;;;;;5010148;28;20285;-71
2021/03/18 08:38:14;;;;;;;22.07;8.93;;;5.10;99.90;;;;;;5009686;28;20764;-68
2021/03/18 08:40:58;;;;;;;18.70;7.60;;;5.20;99.90;;;;;;5004337;28;20209;-71
2021/03/18 08:43:25;;;;;;;16.23;7.53;;;5.30;99.90;;;;;;5009333;28;20237;-71
2021/03/18 08:45:53;;;;;;;16.60;6.43;;;5.40;99.90;;;;;;5010082;28;20559;-66
2021/03/18 08:48:21;;;;;;;16.87;6.03;;;5.50;99.90;;;;;;5007678;28;20222;-71
2021/03/18 08:50:56;;;;;;;21.20;7.10;;;5.60;99.90;;;;;;5008864;28;20213;-71
2021/03/18 08:53:38;;;;;;;22.77;7.30;;;5.60;99.90;;;;;;5010529;28;20197;-71
2021/03/18 08:56:08;;;;;;;24.97;7.73;;;5.70;99.90;;;;;;5007445;28;20201;-70
2021/03/18 08:58:53;;;;;;;18.47;6.87;;;5.70;99.90;;;;;;5007030;28;20620;-71
2021/03/18 09:01:23;;;;;;;19.57;7.33;;;5.70;99.90;;;;;;5009823;28;20198;-71
2021/03/18 09:03:56;;;;;;;17.27;6.97;;;5.80;99.90;;;;;;5008970;28;20206;-71
2021/03/18 09:06:27;;;;;;;22.07;6.80;;;5.80;99.90;;;;;;5007737;28;20194;-71
2021/03/18 09:08:54;;;;;;;22.53;7.43;;;5.90;99.90;;;;;;5007862;28;20200;-70
2021/03/18 09:11:24;;;;;;;23.47;7.70;;;5.90;99.90;;;;;;5009164;28;20194;-70
2021/03/18 09:13:51;;;;;;;23.93;7.87;;;6.00;99.90;;;;;;5009082;28;20186;-71
2021/03/18 09:16:22;;;;;;;28.10;8.50;;;6.10;99.90;;;;;;5008828;28;20226;-71
2021/03/18 09:18:58;;;;;;;22.03;7.63;;;6.20;99.90;;;;;;5008286;28;20209;-71
2021/03/18 09:21:26;;;;;;;24.40;8.33;;;6.20;99.90;;;;;;5009913;28;20194;-71
2021/03/18 09:23:55;;;;;;;19.57;8.00;;;6.30;99.90;;;;;;5006918;28;20286;-70
2021/03/18 09:26:26;;;;;;;25.70;8.50;;;6.40;99.90;;;;;;5006797;28;20669;-71
2021/03/18 09:28:54;;;;;;;21.97;8.10;;;6.40;99.90;;;;;;5008467;28;20248;-71
2021/03/18 09:31:23;;;;;;;23.43;8.10;;;6.60;99.90;;;;;;5009637;28;20204;-71
2021/03/18 09:33:54;;;;;;;23.87;9.47;;;6.60;99.90;;;;;;5009333;28;20260;-71
2021/03/18 09:36:24;;;;;;;25.70;9.37;;;6.70;99.90;;;;;;5007874;28;20182;-70
2021/03/18 09:39:00;;;;;;;24.70;8.87;;;6.70;99.90;;;;;;5014057;28;20194;-71
2021/03/18 09:41:32;;;;;;;20.83;8.40;;;6.80;99.90;;;;;;5012505;28;20198;-70
2021/03/18 09:44:09;;;;;;;21.50;8.40;;;6.80;99.90;;;;;;5004515;28;20264;-71
2021/03/18 09:46:39;;;;;;;19.00;8.70;;;6.80;99.90;;;;;;5009632;28;20688;-69
2021/03/18 09:49:07;;;;;;;31.53;9.00;;;6.80;99.90;;;;;;5009281;28;20202;-70
2021/03/18 09:51:37;;;;;;;23.70;8.73;;;6.80;99.90;;;;;;5008268;28;20244;-71
2021/03/18 09:54:07;;;;;;;20.77;8.83;;;6.90;99.90;;;;;;5006602;28;20330;-71
2021/03/18 09:56:38;;;;;;;22.90;8.50;;;6.90;99.90;;;;;;5008866;28;20289;-71
2021/03/18 09:59:07;;;;;;;30.00;9.77;;;6.90;99.90;;;;;;5008488;28;20206;-70
2021/03/18 10:01:35;;;;;;;26.97;9.30;;;6.90;99.90;;;;;;5011305;28;20847;-71
2021/03/18 10:04:06;;;;;;;20.20;8.87;;;6.90;99.90;;;;;;5005050;28;20214;-71
2021/03/18 10:06:35;;;;;;;23.20;8.73;;;6.90;99.90;;;;;;5012893;28;20190;-71
2021/03/18 10:09:20;;;;;;;26.10;8.07;;;7.00;99.90;;;;;;5011470;28;20289;-71
2021/03/18 10:11:49;;;;;;;23.13;8.00;;;7.00;99.90;;;;;;5012309;28;20676;-71
2021/03/18 10:14:17;;;;;;;24.50;7.83;;;7.00;99.90;;;;;;5009791;28;20198;-71
2021/03/18 10:17:07;;;;;;;19.90;7.27;;;7.10;99.90;;;;;;5010486;28;20221;-71
2021/03/18 10:19:39;;;;;;;18.00;7.57;;;7.30;99.90;;;;;;5013189;28;20202;-71
2021/03/18 10:22:08;;;;;;;25.73;7.87;;;7.50;99.90;;;;;;5010283;28;20195;-71
2021/03/18 10:24:37;;;;;;;22.20;8.07;;;7.70;99.90;;;;;;5012388;28;20218;-71
2021/03/18 10:27:12;;;;;;;20.40;7.40;;;7.80;99.90;;;;;;5010278;28;20194;-71
2021/03/18 10:29:41;;;;;;;17.67;7.03;;;7.90;99.90;;;;;;5011837;28;20222;-71
2021/03/18 10:32:10;;;;;;;15.47;7.10;;;7.90;99.90;;;;;;5011427;28;20289;-71
2021/03/18 10:34:39;;;;;;;19.57;8.33;;;8.00;99.90;;;;;;5012326;28;20244;-71
2021/03/18 10:37:25;;;;;;;19.90;7.57;;;8.00;99.90;;;;;;5010334;28;20195;-71
2021/03/18 10:40:11;;;;;;;20.33;7.20;;;8.00;99.90;;;;;;5011102;28;20190;-71
2021/03/18 10:42:39;;;;;;;11.93;7.53;;;8.10;99.90;;;;;;5011245;28;20309;-71
2021/03/18 10:45:31;;;;;;;13.57;7.87;;;8.20;99.90;;;;;;5011988;28;20723;-71
2021/03/18 10:48:02;;;;;;;15.27;7.63;;;8.30;99.90;;;;;;5012168;28;20735;-67
2021/03/18 10:50:32;;;;;;;11.63;7.43;;;8.50;99.90;;;;;;5011865;28;20270;-71
2021/03/18 10:53:03;;;;;;;10.60;7.03;;;8.50;99.90;;;;;;5011943;28;20218;-70
2021/03/18 10:55:35;;;;;;;11.93;7.17;;;8.70;99.90;;;;;;5010225;28;20198;-71
2021/03/18 10:58:04;;;;;;;11.07;6.60;;;8.80;99.90;;;;;;5010289;28;20225;-70
2021/03/18 11:00:37;;;;;;;7.30;6.33;;;8.70;99.90;;;;;;5009306;28;20633;-70
2021/03/18 11:03:08;;;;;;;6.63;5.93;;;8.70;99.90;;;;;;5009283;28;20252;-70
2021/03/18 11:05:41;;;;;;;11.67;6.77;;;8.80;99.90;;;;;;5010197;28;20276;-71
2021/03/18 11:08:09;;;;;;;8.07;6.10;;;8.80;99.90;;;;;;5010876;28;20728;-71
2021/03/18 11:10:40;;;;;;;9.13;6.17;;;9.00;99.90;;;;;;5024912;28;20186;-71
2021/03/18 11:13:13;;;;;;;9.70;6.73;;;9.00;99.90;;;;;;5007768;28;20194;-70
2021/03/18 11:15:50;;;;;;;9.03;6.03;;;9.30;99.90;;;;;;5010618;28;20229;-71
2021/03/18 11:18:18;;;;;;;6.70;5.27;;;9.40;99.90;;;;;;5009763;28;20263;-71
2021/03/18 11:20:49;;;;;;;5.30;4.90;;;9.50;99.90;;;;;;5008207;28;20194;-71
2021/03/18 11:23:24;;;;;;;5.73;5.13;;;9.80;99.90;;;;;;5009832;28;20620;-70
2021/03/18 11:25:55;;;;;;;6.00;4.20;;;10.20;99.90;;;;;;5009850;28;20198;-71
2021/03/18 11:28:23;;;;;;;5.77;4.30;;;10.50;99.90;;;;;;5011659;28;20186;-71
2021/03/18 11:30:51;;;;;;;4.30;4.00;;;10.70;99.90;;;;;;5011240;28;20248;-70
2021/03/18 11:33:21;;;;;;;5.47;3.23;;;10.90;99.90;;;;;;5009836;28;20201;-71
2021/03/18 11:35:51;;;;;;;4.63;4.23;;;11.00;99.90;;;;;;5007944;28;20225;-71
2021/03/18 11:38:19;;;;;;;5.50;4.70;;;11.00;99.90;;;;;;5014191;28;20680;-70
2021/03/18 11:40:48;;;;;;;5.83;5.23;;;10.70;99.90;;;;;;5003739;28;20198;-70
2021/03/18 11:43:16;;;;;;;6.87;5.50;;;10.60;99.90;;;;;;5008909;28;20693;-71
2021/03/18 11:45:43;;;;;;;11.70;6.90;;;10.30;99.90;;;;;;5014275;28;20202;-70
2021/03/18 11:48:11;;;;;;;7.40;5.10;;;10.30;99.90;;;;;;5009567;28;20244;-70
2021/03/18 11:50:40;;;;;;;6.97;5.80;;;10.30;99.90;;;;;;5010479;28;20249;-69
2021/03/18 11:53:08;;;;;;;6.43;5.83;;;10.40;99.90;;;;;;5008074;28;20186;-69
2021/03/18 11:55:37;;;;;;;7.07;6.37;;;10.20;99.90;;;;;;5007797;28;20531;-70
2021/03/18 11:58:04;;;;;;;8.40;6.70;;;10.30;99.90;;;;;;5008358;28;20213;-70
2021/03/18 12:00:33;;;;;;;10.27;6.60;;;10.40;99.90;;;;;;5008607;28;20194;-70
2021/03/18 12:03:01;;;;;;;7.60;6.90;;;10.30;99.90;;;;;;5008060;28;20218;-71
2021/03/18 12:05:39;;;;;;;7.20;6.50;;;10.40;99.90;;;;;;5009896;28;20197;-70
2021/03/18 12:08:10;;;;;;;7.63;6.70;;;10.50;99.90;;;;;;5007965;28;20734;-71
2021/03/18 12:10:46;;;;;;;8.37;6.97;;;10.50;99.90;;;;;;5009822;28;20186;-70
2021/03/18 12:13:15;;;;;;;7.90;6.67;;;10.50;99.90;;;;;;5009392;28;20190;-71
2021/03/18 12:15:42;;;;;;;8.97;7.43;;;10.40;99.90;;;;;;5009631;28;20360;-71
2021/03/18 12:18:10;;;;;;;10.50;7.90;;;10.40;99.90;;;;;;5009444;28;20206;-70
2021/03/18 12:20:38;;;;;;;9.97;7.03;;;10.30;99.90;;;;;;5010136;28;20672;-71
2021/03/18 12:23:05;;;;;;;9.03;6.80;;;10.30;99.90;;;;;;5010295;28;20222;-70
2021/03/18 12:25:33;;;;;;;10.23;6.87;;;10.30;99.90;;;;;;5008115;28;20201;-71
2021/03/18 12:28:01;;;;;;;9.70;6.33;;;10.40;99.90;;;;;;5023571;28;20201;-73
2021/03/18 12:30:28;;;;;;;9.40;6.93;;;10.50;99.90;;;;;;5010182;28;20197;-71
2021/03/18 12:32:56;;;;;;;11.97;6.90;;;10.50;99.90;;;;;;5001838;28;20683;-70
2021/03/18 12:35:24;;;;;;;8.00;6.53;;;10.30;99.90;;;;;;5007509;28;20198;-70
2021/03/18 12:37:52;;;;;;;9.37;6.93;;;10.20;99.90;;;;;;5009729;28;20206;-71
2021/03/18 12:40:22;;;;;;;8.07;6.40;;;10.10;99.90;;;;;;5008828;28;20773;-71
2021/03/18 12:42:51;;;;;;;9.87;7.53;;;10.00;99.90;;;;;;5008422;28;20190;-71
2021/03/18 12:45:19;;;;;;;8.77;5.90;;;10.00;99.90;;;;;;5008613;28;20194;-71
2021/03/18 12:47:47;;;;;;;11.10;6.23;;;10.00;99.90;;;;;;5009020;28;20281;-70
2021/03/18 12:50:18;;;;;;;12.77;8.73;;;10.00;99.90;;;;;;5010305;28;20206;-70
2021/03/18 12:52:46;;;;;;;14.53;8.80;;;10.10;99.90;;;;;;5010089;28;20199;-71
2021/03/18 12:55:15;;;;;;;14.30;8.43;;;10.30;99.90;;;;;;5009178;28;20202;-70
2021/03/18 12:57:52;;;;;;;17.87;9.30;;;10.40;99.90;;;;;;5007848;28;20198;-70
2021/03/18 13:00:23;;;;;;;13.70;7.87;;;10.40;99.90;;;;;;5008020;28;20191;-70
2021/03/18 13:02:51;;;;;;;12.47;8.37;;;10.30;99.90;;;;;;5009035;28;20225;-71
2021/03/18 13:05:20;;;;;;;12.20;8.33;;;10.10;99.90;;;;;;5008982;28;20197;-70
2021/03/18 13:07:48;;;;;;;12.97;8.30;;;9.80;99.90;;;;;;5009891;28;20252;-71